Time;durP1;ratioP1;P1;durP2;ratioP2;P2;SDS_P1;SDS_P2;PMS_P1;PMS_P2;Temp;Humidity;BMP_temperature;BMP_pressure;BME280_temperature;BME280_humidity;BME280_pressure;Samples;Min_cycle;Max_cycle;Signal;HPM_P1;HPM_P2
2023/07/19 00:01:46;;;;;;;2.15;0.60;;;;;23.60;101305.00;;;;5008993;28;20220;-82
2023/07/19 00:04:14;;;;;;;1.40;0.73;;;;;23.50;101302.00;;;;5008857;28;20193;-81
2023/07/19 00:06:41;;;;;;;0.60;0.55;;;;;23.50;101300.00;;;;5008575;28;20204;-82
2023/07/19 00:09:09;;;;;;;2.40;0.68;;;;;23.50;101301.00;;;;5008426;28;20197;-82
2023/07/19 00:11:37;;;;;;;0.65;0.50;;;;;23.50;101305.00;;;;5008100;28;20198;-81
2023/07/19 00:14:05;;;;;;;1.10;0.82;;;;;23.50;101297.00;;;;5007736;28;20698;-82
2023/07/19 00:16:33;;;;;;;1.83;0.90;;;;;23.40;101290.00;;;;5008384;28;20201;-82
2023/07/19 00:19:00;;;;;;;1.55;0.90;;;;;23.40;101288.00;;;;5008543;28;20587;-81
2023/07/19 00:21:27;;;;;;;1.30;0.90;;;;;23.40;101285.00;;;;5007264;28;20205;-81
2023/07/19 00:23:55;;;;;;;1.83;0.82;;;;;23.40;101279.00;;;;5008438;28;20204;-81
2023/07/19 00:26:23;;;;;;;1.40;0.85;;;;;23.30;101280.00;;;;5008651;28;20637;-81
2023/07/19 00:28:50;;;;;;;2.42;0.90;;;;;23.30;101277.00;;;;5007661;28;20212;-81
2023/07/19 00:31:18;;;;;;;1.27;0.70;;;;;23.30;101278.00;;;;5007554;28;20224;-81
2023/07/19 00:33:45;;;;;;;4.93;0.95;;;;;23.20;101279.00;;;;5007442;28;20757;-81
2023/07/19 00:36:13;;;;;;;1.55;0.80;;;;;23.20;101276.00;;;;5008474;28;20232;-82
2023/07/19 00:38:40;;;;;;;1.20;1.10;;;;;23.20;101285.00;;;;5008316;28;20461;-82
2023/07/19 00:41:07;;;;;;;1.40;0.77;;;;;23.10;101282.00;;;;5007788;28;20211;-81
2023/07/19 00:43:36;;;;;;;1.63;0.80;;;;;23.10;101276.00;;;;5008116;28;20606;-82
2023/07/19 00:46:04;;;;;;;1.45;0.65;;;;;23.10;101267.00;;;;5007549;28;20212;-81
2023/07/19 00:48:31;;;;;;;3.17;1.23;;;;;23.10;101268.00;;;;5007893;28;20220;-81
2023/07/19 00:50:59;;;;;;;1.20;0.75;;;;;23.00;101265.00;;;;4999083;28;20210;-82
2023/07/19 00:53:27;;;;;;;1.45;1.08;;;;;23.00;101273.00;;;;5007815;28;20235;-82
2023/07/19 00:55:54;;;;;;;3.10;1.20;;;;;23.00;101268.00;;;;5007103;28;20200;-81
2023/07/19 00:58:23;;;;;;;1.50;0.90;;;;;22.90;101258.00;;;;5007874;28;20602;-82
2023/07/19 01:01:21;;;;;;;2.53;0.75;;;;;22.90;101252.00;;;;5095765;27;1205334;-80
2023/07/19 01:03:48;;;;;;;2.83;0.80;;;;;22.90;101243.00;;;;5126775;28;20193;-81
2023/07/19 01:06:15;;;;;;;1.90;1.10;;;;;22.90;101243.00;;;;5125357;28;20200;-81
2023/07/19 01:08:42;;;;;;;1.15;0.82;;;;;22.80;101257.00;;;;5111116;28;20202;-81
2023/07/19 01:11:10;;;;;;;2.67;0.82;;;;;22.80;101251.00;;;;5106071;28;20205;-81
2023/07/19 01:13:37;;;;;;;1.80;0.95;;;;;22.80;101249.00;;;;5126142;28;20197;-81
2023/07/19 01:16:04;;;;;;;1.35;0.73;;;;;22.80;101256.00;;;;5125911;28;20208;-81
2023/07/19 01:18:33;;;;;;;1.20;0.80;;;;;22.80;101255.00;;;;5125781;28;20197;-81
2023/07/19 01:21:00;;;;;;;0.73;0.45;;;;;22.80;101257.00;;;;5125168;28;20226;-81
2023/07/19 01:23:29;;;;;;;0.98;0.77;;;;;22.70;101249.00;;;;5125988;28;20551;-81
2023/07/19 01:25:57;;;;;;;0.88;0.82;;;;;22.70;101246.00;;;;5124850;28;20577;-80
2023/07/19 01:28:24;;;;;;;1.35;0.75;;;;;22.70;101248.00;;;;5125792;28;20196;-81
2023/07/19 01:30:51;;;;;;;3.35;1.13;;;;;22.70;101251.00;;;;5126201;28;20208;-81
2023/07/19 01:33:18;;;;;;;1.17;0.77;;;;;22.60;101251.00;;;;5125279;28;20577;-81
2023/07/19 01:35:46;;;;;;;1.30;0.70;;;;;22.60;101244.00;;;;5125874;28;20208;-81
2023/07/19 01:38:14;;;;;;;2.08;1.00;;;;;22.60;101243.00;;;;5125750;28;20208;-81
2023/07/19 01:40:42;;;;;;;1.40;0.70;;;;;22.60;101236.00;;;;5125508;28;20217;-81
2023/07/19 01:43:09;;;;;;;2.63;0.82;;;;;22.60;101237.00;;;;5124337;28;20204;-82
2023/07/19 01:45:37;;;;;;;1.55;0.68;;;;;22.50;101242.00;;;;5125612;28;20200;-81
2023/07/19 01:48:04;;;;;;;1.20;0.70;;;;;22.50;101237.00;;;;5125607;28;20204;-82
2023/07/19 01:50:31;;;;;;;1.40;0.90;;;;;22.50;101233.00;;;;5125552;28;20205;-82
2023/07/19 01:52:59;;;;;;;1.10;0.57;;;;;22.50;101233.00;;;;5125072;28;20212;-82
2023/07/19 01:55:26;;;;;;;0.73;0.55;;;;;22.50;101236.00;;;;5124852;28;20221;-82
2023/07/19 01:57:55;;;;;;;1.40;0.90;;;;;22.40;101233.00;;;;5119873;28;20201;-82
2023/07/19 02:00:22;;;;;;;1.55;1.05;;;;;22.40;101222.00;;;;5123654;27;20244;-81
2023/07/19 02:02:50;;;;;;;2.95;0.80;;;;;22.40;101226.00;;;;5125008;28;20204;-82
2023/07/19 02:05:17;;;;;;;1.05;0.75;;;;;22.40;101222.00;;;;5124662;28;20205;-82
2023/07/19 02:07:45;;;;;;;1.98;1.00;;;;;22.40;101229.00;;;;5125151;28;20239;-82
2023/07/19 02:10:13;;;;;;;0.82;0.77;;;;;22.40;101231.00;;;;5125191;28;20201;-81
2023/07/19 02:12:40;;;;;;;1.38;0.90;;;;;22.40;101226.00;;;;5111778;28;20566;-82
2023/07/19 02:15:10;;;;;;;1.60;1.00;;;;;22.30;101237.00;;;;5110505;28;20200;-82
2023/07/19 02:17:37;;;;;;;2.15;0.77;;;;;22.40;101227.00;;;;5111515;28;20275;-82
2023/07/19 02:20:05;;;;;;;1.52;1.00;;;;;22.30;101226.00;;;;5111209;28;20241;-82
2023/07/19 02:22:32;;;;;;;2.25;0.93;;;;;22.30;101221.00;;;;5110648;28;20753;-82
2023/07/19 02:24:59;;;;;;;1.13;0.80;;;;;22.30;101220.00;;;;5111802;28;20201;-82
2023/07/19 02:27:27;;;;;;;1.17;1.00;;;;;22.30;101221.00;;;;5110957;28;20201;-82
2023/07/19 02:29:54;;;;;;;2.42;1.10;;;;;22.30;101214.00;;;;5110683;28;20198;-82
2023/07/19 02:32:23;;;;;;;2.22;1.30;;;;;22.30;101219.00;;;;5110064;28;20202;-82
2023/07/19 02:34:50;;;;;;;2.90;1.05;;;;;22.30;101222.00;;;;5111299;28;20198;-81
2023/07/19 02:37:17;;;;;;;1.23;1.13;;;;;22.30;101221.00;;;;5104327;28;20670;-82
2023/07/19 02:39:45;;;;;;;0.82;0.73;;;;;22.30;101218.00;;;;5111177;28;20236;-82
2023/07/19 02:42:12;;;;;;;1.73;1.20;;;;;22.30;101224.00;;;;5110254;28;20483;-82
2023/07/19 02:44:39;;;;;;;2.63;1.13;;;;;22.20;101237.00;;;;5110182;28;20198;-82
2023/07/19 02:47:06;;;;;;;2.22;0.93;;;;;22.20;101229.00;;;;5111130;28;20561;-82
2023/07/19 02:49:35;;;;;;;0.80;0.80;;;;;22.20;101216.00;;;;5104579;28;20202;-82
2023/07/19 02:52:02;;;;;;;1.80;0.90;;;;;22.20;101223.00;;;;5090608;28;20217;-81
2023/07/19 02:54:29;;;;;;;1.75;1.17;;;;;22.20;101228.00;;;;5089315;28;20544;-82
2023/07/19 02:56:57;;;;;;;1.75;0.98;;;;;22.20;101225.00;;;;5090058;28;20201;-82
2023/07/19 02:59:24;;;;;;;2.28;1.08;;;;;22.20;101229.00;;;;5092478;28;20197;-82
2023/07/19 03:01:51;;;;;;;3.65;1.17;;;;;22.20;101230.00;;;;5109770;28;20225;-82
2023/07/19 03:04:18;;;;;;;0.90;0.75;;;;;22.10;101227.00;;;;5110699;28;20209;-82
2023/07/19 03:06:48;;;;;;;1.27;1.05;;;;;22.10;101221.00;;;;5102951;28;20584;-82
2023/07/19 03:09:15;;;;;;;2.03;0.90;;;;;22.10;101227.00;;;;5089475;28;20746;-82
2023/07/19 03:11:42;;;;;;;2.05;1.05;;;;;22.10;101221.00;;;;5089090;28;20198;-82
2023/07/19 03:14:10;;;;;;;1.35;1.10;;;;;22.10;101226.00;;;;5089914;28;20618;-82
2023/07/19 03:16:37;;;;;;;1.98;0.93;;;;;22.10;101219.00;;;;5106941;28;20208;-82
2023/07/19 03:19:05;;;;;;;1.65;0.82;;;;;22.10;101215.00;;;;5110056;28;20247;-82
2023/07/19 03:21:32;;;;;;;1.35;0.80;;;;;22.10;101220.00;;;;5109994;28;20232;-82
2023/07/19 03:24:01;;;;;;;2.00;1.05;;;;;22.10;101224.00;;;;5107547;28;20205;-82
2023/07/19 03:26:28;;;;;;;2.17;1.02;;;;;22.10;101223.00;;;;5109720;28;20658;-82
2023/07/19 03:28:56;;;;;;;1.52;0.95;;;;;22.10;101220.00;;;;5109680;28;20209;-82
2023/07/19 03:31:23;;;;;;;1.88;1.15;;;;;22.10;101216.00;;;;5109934;28;20361;-82
2023/07/19 03:33:50;;;;;;;1.23;0.93;;;;;22.10;101220.00;;;;5109602;28;20208;-82
2023/07/19 03:36:17;;;;;;;1.02;0.80;;;;;22.10;101212.00;;;;5108911;28;20186;-82
2023/07/19 03:38:44;;;;;;;2.72;1.13;;;;;22.10;101224.00;;;;5109406;28;20216;-82
2023/07/19 03:41:13;;;;;;;1.63;0.95;;;;;22.10;101218.00;;;;5108988;28;20746;-81
2023/07/19 03:43:40;;;;;;;1.30;1.00;;;;;22.10;101220.00;;;;5109669;28;20202;-81
2023/07/19 03:46:08;;;;;;;1.55;1.23;;;;;22.10;101218.00;;;;5108465;28;20202;-81
2023/07/19 03:48:37;;;;;;;2.47;1.40;;;;;22.10;101218.00;;;;5109352;28;20197;-81
2023/07/19 03:51:04;;;;;;;1.75;1.20;;;;;22.10;101219.00;;;;5108617;28;20609;-82
2023/07/19 03:53:31;;;;;;;1.70;1.40;;;;;22.10;101214.00;;;;5109680;28;20202;-80
2023/07/19 03:56:00;;;;;;;1.10;0.95;;;;;22.10;101212.00;;;;5109218;28;20193;-80
2023/07/19 03:58:29;;;;;;;1.45;1.10;;;;;22.10;101212.00;;;;5107958;28;20206;-80
2023/07/19 04:00:58;;;;;;;2.08;1.25;;;;;22.10;101200.00;;;;5108754;28;20252;-80
2023/07/19 04:03:26;;;;;;;2.10;1.42;;;;;22.10;101210.00;;;;5109422;28;20563;-80
2023/07/19 04:05:54;;;;;;;2.92;1.17;;;;;22.10;101208.00;;;;5109629;28;20635;-80
2023/07/19 04:08:21;;;;;;;1.20;1.10;;;;;22.10;101205.00;;;;5108629;28;20547;-81
2023/07/19 04:10:49;;;;;;;2.65;1.30;;;;;22.10;101210.00;;;;5109678;28;20590;-81
2023/07/19 04:13:16;;;;;;;1.60;1.25;;;;;22.10;101216.00;;;;5108681;28;20194;-81
2023/07/19 04:15:45;;;;;;;2.67;1.30;;;;;22.10;101205.00;;;;5094161;28;20209;-80
2023/07/19 04:18:12;;;;;;;1.95;1.17;;;;;22.10;101203.00;;;;5088929;28;20213;-81
2023/07/19 04:20:39;;;;;;;1.30;1.20;;;;;22.10;101210.00;;;;5089397;28;20228;-80
2023/07/19 04:23:07;;;;;;;1.95;1.20;;;;;22.10;101204.00;;;;5089674;28;20190;-80
2023/07/19 04:25:34;;;;;;;4.15;1.08;;;;;22.10;101211.00;;;;5088752;28;20224;-81
2023/07/19 04:28:02;;;;;;;2.38;1.10;;;;;22.20;101213.00;;;;5089371;28;20583;-81
2023/07/19 04:30:30;;;;;;;1.50;1.17;;;;;22.20;101210.00;;;;5089420;28;20206;-81
2023/07/19 04:32:58;;;;;;;2.15;1.10;;;;;22.20;101211.00;;;;5089029;28;20206;-80
2023/07/19 04:35:28;;;;;;;2.05;1.20;;;;;22.20;101201.00;;;;5088420;28;20239;-80
2023/07/19 04:37:55;;;;;;;1.92;1.30;;;;;22.20;101209.00;;;;5088929;28;20213;-80
2023/07/19 04:40:22;;;;;;;6.20;2.42;;;;;22.20;101214.00;;;;5089437;28;20225;-81
2023/07/19 04:42:50;;;;;;;3.10;1.73;;;;;22.20;101213.00;;;;5088790;28;20194;-80
2023/07/19 04:45:17;;;;;;;3.83;1.88;;;;;22.30;101213.00;;;;5100942;28;20288;-80
2023/07/19 04:47:44;;;;;;;2.15;1.95;;;;;22.30;101214.00;;;;5110074;28;20205;-81
2023/07/19 04:50:13;;;;;;;2.75;1.63;;;;;22.30;101214.00;;;;5108805;28;20574;-81
2023/07/19 04:52:40;;;;;;;2.50;1.35;;;;;22.30;101209.00;;;;5109078;28;20697;-81
2023/07/19 04:55:09;;;;;;;2.85;1.90;;;;;22.30;101208.00;;;;5109068;28;20198;-81
2023/07/19 04:57:37;;;;;;;1.67;1.38;;;;;22.40;101218.00;;;;5108847;28;20215;-81
2023/07/19 05:00:11;;;;;;;1.40;0.98;;;;;22.40;101223.00;;;;5107749;28;20251;-81
2023/07/19 05:02:38;;;;;;;1.85;1.10;;;;;22.40;101228.00;;;;5107876;28;20578;-81
2023/07/19 05:05:06;;;;;;;3.15;0.93;;;;;22.40;101225.00;;;;5106515;28;20200;-81
2023/07/19 05:07:36;;;;;;;2.22;1.17;;;;;22.40;101230.00;;;;5088805;28;20253;-80
2023/07/19 05:10:05;;;;;;;1.80;0.98;;;;;22.50;101222.00;;;;5087752;28;20206;-80
2023/07/19 05:12:32;;;;;;;1.55;1.23;;;;;22.50;101224.00;;;;5087388;28;20198;-81
2023/07/19 05:15:00;;;;;;;1.95;1.60;;;;;22.50;101229.00;;;;5097735;28;20655;-81
2023/07/19 05:17:27;;;;;;;1.50;1.30;;;;;22.60;101219.00;;;;5107658;28;20212;-81
2023/07/19 05:19:54;;;;;;;2.10;1.55;;;;;22.60;101222.00;;;;5108159;28;20208;-81
2023/07/19 05:22:21;;;;;;;1.20;1.10;;;;;22.60;101221.00;;;;5107255;28;20598;-81
2023/07/19 05:24:50;;;;;;;1.45;1.30;;;;;22.60;101224.00;;;;5107926;28;20197;-81
2023/07/19 05:27:17;;;;;;;2.17;1.60;;;;;22.70;101225.00;;;;5108223;28;20198;-81
2023/07/19 05:29:45;;;;;;;3.83;1.67;;;;;22.70;101223.00;;;;5108278;28;20205;-81
2023/07/19 05:32:12;;;;;;;2.30;1.67;;;;;22.80;101229.00;;;;5107242;28;20309;-81
2023/07/19 05:34:39;;;;;;;5.10;1.98;;;;;22.80;101221.00;;;;5108010;28;20190;-81
2023/07/19 05:37:07;;;;;;;2.95;2.20;;;;;22.90;101223.00;;;;5107917;28;20545;-81
2023/07/19 05:39:35;;;;;;;2.10;1.85;;;;;22.90;101222.00;;;;5106554;28;20639;-81
2023/07/19 05:42:05;;;;;;;3.00;2.55;;;;;23.00;101222.00;;;;5107690;28;20222;-81
2023/07/19 05:44:32;;;;;;;2.20;2.00;;;;;23.10;101225.00;;;;5107720;28;20212;-81
2023/07/19 05:46:59;;;;;;;3.65;1.75;;;;;23.20;101229.00;;;;5109520;28;20198;-81
2023/07/19 05:49:26;;;;;;;2.92;2.25;;;;;23.30;101225.00;;;;5110084;28;20216;-81
2023/07/19 05:51:54;;;;;;;3.22;2.72;;;;;23.30;101234.00;;;;5111629;28;20185;-81
2023/07/19 05:54:21;;;;;;;6.63;2.78;;;;;23.40;101224.00;;;;5111680;28;20684;-81
2023/07/19 05:56:48;;;;;;;3.55;2.47;;;;;23.50;101223.00;;;;5104044;28;20202;-81
2023/07/19 05:59:17;;;;;;;5.22;2.88;;;;;23.50;101216.00;;;;5090272;28;20201;-81
2023/07/19 06:01:44;;;;;;;4.93;2.85;;;;;23.50;101213.00;;;;5110745;28;20595;-81
2023/07/19 06:04:13;;;;;;;2.90;2.45;;;;;23.60;101217.00;;;;5111085;28;20212;-81
2023/07/19 06:06:40;;;;;;;3.97;2.90;;;;;23.70;101219.00;;;;5111184;28;20572;-81
2023/07/19 06:09:08;;;;;;;4.93;2.53;;;;;23.70;101228.00;;;;5110649;28;20558;-81
2023/07/19 06:11:36;;;;;;;3.60;2.85;;;;;23.70;101222.00;;;;5111240;28;20205;-81
2023/07/19 06:14:03;;;;;;;5.43;3.40;;;;;23.80;101216.00;;;;5102169;28;20198;-81
2023/07/19 06:16:32;;;;;;;4.88;2.75;;;;;23.80;101214.00;;;;5090796;28;20293;-81
2023/07/19 06:18:59;;;;;;;6.03;2.63;;;;;23.90;101211.00;;;;5090839;28;20194;-81
2023/07/19 06:21:27;;;;;;;3.20;2.78;;;;;23.90;101214.00;;;;5089910;28;20233;-81
2023/07/19 06:23:54;;;;;;;4.25;3.20;;;;;24.00;101211.00;;;;5091393;28;20232;-81
2023/07/19 06:26:22;;;;;;;4.40;3.03;;;;;24.10;101213.00;;;;5090850;28;20568;-81
2023/07/19 06:28:49;;;;;;;2.75;2.33;;;;;24.10;101213.00;;;;5090847;28;20882;-81
2023/07/19 06:31:16;;;;;;;4.45;2.50;;;;;24.20;101211.00;;;;5090643;28;20672;-81
2023/07/19 06:33:45;;;;;;;3.72;3.25;;;;;24.20;101211.00;;;;5090801;28;20986;-81
2023/07/19 06:36:12;;;;;;;2.88;2.50;;;;;24.30;101218.00;;;;5091120;28;20221;-81
2023/07/19 06:38:39;;;;;;;3.85;2.75;;;;;24.40;101219.00;;;;5090897;28;20187;-82
2023/07/19 06:41:07;;;;;;;6.97;2.92;;;;;24.40;101218.00;;;;5090334;28;20239;-82
2023/07/19 06:43:34;;;;;;;7.20;2.78;;;;;24.50;101219.00;;;;5090038;28;21014;-81
2023/07/19 06:46:02;;;;;;;3.30;3.00;;;;;24.60;101217.00;;;;5091523;28;20217;-81
2023/07/19 06:48:29;;;;;;;3.95;2.63;;;;;24.70;101217.00;;;;5109650;28;20221;-82
2023/07/19 06:50:57;;;;;;;5.20;2.83;;;;;24.70;101213.00;;;;5110267;28;20204;-82
2023/07/19 06:53:25;;;;;;;3.92;2.50;;;;;24.80;101220.00;;;;5110090;28;20197;-81
2023/07/19 06:55:54;;;;;;;3.42;1.65;;;;;24.80;101208.00;;;;5110187;28;20196;-81
2023/07/19 06:58:22;;;;;;;4.97;3.03;;;;;24.90;101220.00;;;;5110129;28;20208;-81
2023/07/19 07:00:49;;;;;;;5.15;2.20;;;;;24.90;101212.00;;;;5109501;28;20229;-81
2023/07/19 07:03:16;;;;;;;3.75;2.33;;;;;25.00;101219.00;;;;5110007;28;20262;-82
2023/07/19 07:05:46;;;;;;;5.55;3.45;;;;;25.00;101222.00;;;;5095429;28;20199;-82
2023/07/19 07:08:15;;;;;;;5.90;3.05;;;;;25.10;101220.00;;;;5089310;28;20275;-82
2023/07/19 07:10:43;;;;;;;5.47;2.75;;;;;25.20;101219.00;;;;5089997;28;20206;-82
2023/07/19 07:13:10;;;;;;;4.45;3.05;;;;;25.30;101220.00;;;;5089653;28;20213;-82
2023/07/19 07:15:38;;;;;;;2.92;2.08;;;;;25.30;101215.00;;;;5099055;28;20197;-81
2023/07/19 07:18:05;;;;;;;2.28;2.08;;;;;25.40;101212.00;;;;5110048;28;20197;-81
2023/07/19 07:20:35;;;;;;;2.95;2.20;;;;;25.50;101213.00;;;;5109889;28;20189;-82
2023/07/19 07:23:03;;;;;;;3.63;2.20;;;;;25.60;101216.00;;;;5109349;28;20221;-82
2023/07/19 07:25:32;;;;;;;2.88;2.15;;;;;25.60;101220.00;;;;5109351;28;20205;-81
2023/07/19 07:27:59;;;;;;;2.80;2.15;;;;;25.70;101210.00;;;;5109823;28;20212;-81
2023/07/19 07:30:27;;;;;;;2.10;1.85;;;;;25.80;101219.00;;;;5109341;28;20194;-81
2023/07/19 07:32:54;;;;;;;4.57;2.30;;;;;25.90;101219.00;;;;5109564;28;20194;-82
2023/07/19 07:35:21;;;;;;;3.47;1.95;;;;;25.90;101221.00;;;;5109101;28;20205;-82
2023/07/19 07:37:49;;;;;;;4.20;2.65;;;;;26.00;101222.00;;;;5109592;28;20209;-81
2023/07/19 07:40:16;;;;;;;2.90;1.92;;;;;26.10;101222.00;;;;5108381;28;20205;-81
2023/07/19 07:42:45;;;;;;;3.45;2.17;;;;;26.20;101222.00;;;;5109993;28;20221;-80
2023/07/19 07:45:12;;;;;;;3.67;2.17;;;;;26.20;101225.00;;;;5109458;28;20194;-81
2023/07/19 07:47:40;;;;;;;4.45;2.25;;;;;26.30;101225.00;;;;5109284;28;20201;-82
2023/07/19 07:50:09;;;;;;;4.88;1.95;;;;;26.30;101231.00;;;;5108478;28;20223;-82
2023/07/19 07:52:36;;;;;;;4.63;2.88;;;;;26.30;101226.00;;;;5109469;28;20204;-82
2023/07/19 07:55:05;;;;;;;3.58;1.98;;;;;26.30;101225.00;;;;5108202;28;20197;-82
2023/07/19 07:57:33;;;;;;;4.60;2.20;;;;;26.40;101221.00;;;;5108693;28;20194;-83
2023/07/19 08:00:02;;;;;;;3.80;2.00;;;;;26.50;101220.00;;;;5108670;28;20217;-82
2023/07/19 08:02:29;;;;;;;3.75;2.15;;;;;26.50;101217.00;;;;5108445;28;20229;-83
2023/07/19 08:04:56;;;;;;;5.60;2.50;;;;;26.60;101214.00;;;;5109644;28;20228;-82
2023/07/19 08:07:25;;;;;;;3.38;2.28;;;;;26.70;101213.00;;;;5108543;28;20233;-82
2023/07/19 08:09:53;;;;;;;3.95;2.05;;;;;26.70;101217.00;;;;5108701;28;20190;-82
2023/07/19 08:12:21;;;;;;;6.18;2.78;;;;;26.70;101215.00;;;;5103898;28;20243;-82
2023/07/19 08:14:48;;;;;;;2.03;1.77;;;;;26.80;101216.00;;;;5088649;28;20583;-82
2023/07/19 08:17:17;;;;;;;5.45;2.60;;;;;26.80;101210.00;;;;5098395;28;20205;-82
2023/07/19 08:19:44;;;;;;;4.50;2.38;;;;;26.80;101207.00;;;;5109056;28;20209;-82
2023/07/19 08:22:25;;;;;;;2.60;1.77;;;;;26.70;101206.00;;;;5108857;28;20591;-82
2023/07/19 08:24:53;;;;;;;3.20;2.03;;;;;26.90;101203.00;;;;5108283;28;20185;-82
2023/07/19 08:27:20;;;;;;;2.63;2.08;;;;;26.90;101206.00;;;;5108140;28;20201;-82
2023/07/19 08:29:48;;;;;;;5.90;1.98;;;;;26.90;101197.00;;;;5108476;28;20572;-81
2023/07/19 08:32:16;;;;;;;2.15;1.85;;;;;26.90;101196.00;;;;5107449;28;20201;-82
2023/07/19 08:34:44;;;;;;;3.08;2.17;;;;;26.90;101203.00;;;;5109306;28;20200;-83
2023/07/19 08:37:11;;;;;;;3.35;2.35;;;;;26.90;101197.00;;;;5108654;28;20197;-82
2023/07/19 08:39:39;;;;;;;2.72;2.00;;;;;26.90;101189.00;;;;5108742;28;20209;-82
2023/07/19 08:42:06;;;;;;;3.50;2.00;;;;;27.00;101197.00;;;;5108535;28;20229;-82
2023/07/19 08:44:34;;;;;;;2.72;1.92;;;;;27.00;101193.00;;;;5108359;28;20212;-82
2023/07/19 08:47:02;;;;;;;2.85;1.60;;;;;27.10;101193.00;;;;5098629;28;20198;-82
2023/07/19 08:49:32;;;;;;;2.53;1.77;;;;;27.00;101195.00;;;;5093515;28;20196;-82
2023/07/19 08:52:00;;;;;;;4.55;1.85;;;;;27.10;101187.00;;;;5108987;28;20205;-83
2023/07/19 08:54:27;;;;;;;3.00;1.75;;;;;27.10;101187.00;;;;5107987;28;20213;-83
2023/07/19 08:56:54;;;;;;;4.07;1.70;;;;;27.10;101190.00;;;;5108962;28;20208;-82
2023/07/19 08:59:22;;;;;;;3.17;1.50;;;;;27.20;101189.00;;;;5107803;28;20212;-82
2023/07/19 09:01:49;;;;;;;4.20;2.03;;;;;27.20;101190.00;;;;5107554;28;20233;-82
2023/07/19 09:04:16;;;;;;;1.98;1.77;;;;;27.20;101188.00;;;;5097047;28;20209;-82
2023/07/19 09:06:45;;;;;;;3.25;1.83;;;;;27.20;101191.00;;;;5088673;28;20195;-82
2023/07/19 09:09:13;;;;;;;5.32;1.92;;;;;27.20;101201.00;;;;5088393;28;20210;-82
2023/07/19 09:11:46;;;;;;;7.00;2.10;;;;;27.20;101191.00;;;;5088272;28;20238;-81
2023/07/19 09:14:13;;;;;;;2.85;1.63;;;;;27.20;101189.00;;;;5087123;28;20201;-82
2023/07/19 09:16:41;;;;;;;4.47;2.17;;;;;27.20;101185.00;;;;5093042;28;20626;-82
2023/07/19 09:19:09;;;;;;;3.00;1.52;;;;;27.20;101187.00;;;;5107568;28;20229;-82
2023/07/19 09:21:39;;;;;;;3.33;1.60;;;;;27.20;101191.00;;;;5108617;28;20205;-82
2023/07/19 09:24:09;;;;;;;1.65;1.27;;;;;27.10;101196.00;;;;5112415;28;20201;-84
2023/07/19 09:26:50;;;;;;;2.80;1.42;;;;;27.00;101200.00;;;;5112548;28;20201;-82
2023/07/19 09:29:18;;;;;;;3.00;1.38;;;;;27.10;101196.00;;;;5111347;28;20288;-82
2023/07/19 09:31:53;;;;;;;2.85;1.70;;;;;27.00;101194.00;;;;5112199;28;20697;-82
2023/07/19 09:34:22;;;;;;;2.92;1.45;;;;;27.00;101203.00;;;;5112111;28;20696;-82
2023/07/19 09:36:51;;;;;;;1.83;1.13;;;;;27.00;101205.00;;;;5111770;28;20197;-83
2023/07/19 09:39:20;;;;;;;1.50;1.13;;;;;27.00;101209.00;;;;5091126;28;20199;-81
2023/07/19 09:41:47;;;;;;;3.35;1.40;;;;;27.00;101206.00;;;;5091597;28;20553;-82
2023/07/19 09:44:16;;;;;;;6.65;2.08;;;;;27.00;101210.00;;;;5090885;28;20209;-82
2023/07/19 09:46:45;;;;;;;4.80;2.53;;;;;27.00;101203.00;;;;5091328;28;20238;-83
2023/07/19 09:49:13;;;;;;;3.38;2.28;;;;;27.10;101195.00;;;;5091310;28;20573;-83
2023/07/19 09:51:42;;;;;;;3.08;1.73;;;;;27.30;101191.00;;;;5101163;28;20718;-84
2023/07/19 09:54:10;;;;;;;3.95;2.08;;;;;27.40;101199.00;;;;5109894;28;20194;-83
2023/07/19 09:56:40;;;;;;;2.92;2.35;;;;;27.40;101194.00;;;;5091177;28;20202;-83
2023/07/19 09:59:11;;;;;;;4.22;2.15;;;;;27.50;101203.00;;;;5090710;28;20221;-82
2023/07/19 10:01:39;;;;;;;3.40;1.75;;;;;27.60;101190.00;;;;5107287;28;20222;-82
2023/07/19 10:04:23;;;;;;;4.75;2.05;;;;;27.40;101195.00;;;;5112093;28;20221;-82
2023/07/19 10:06:50;;;;;;;4.30;1.65;;;;;27.60;101206.00;;;;5112060;28;20231;-82
2023/07/19 10:09:35;;;;;;;3.97;1.83;;;;;27.40;101199.00;;;;5111149;28;20576;-82
2023/07/19 10:12:09;;;;;;;3.78;1.50;;;;;27.40;101204.00;;;;5102784;28;20205;-81
2023/07/19 10:14:37;;;;;;;3.85;1.77;;;;;27.50;101204.00;;;;5091236;28;20195;-82
2023/07/19 10:17:07;;;;;;;3.72;1.92;;;;;27.40;101206.00;;;;5100782;28;20206;-81
2023/07/19 10:19:35;;;;;;;5.45;1.50;;;;;27.40;101201.00;;;;5111492;28;20287;-81
2023/07/19 10:22:05;;;;;;;2.75;1.42;;;;;27.40;101198.00;;;;5111515;28;20193;-82
2023/07/19 10:24:33;;;;;;;4.30;1.55;;;;;27.40;101196.00;;;;5111556;28;20194;-81
2023/07/19 10:27:06;;;;;;;3.28;1.45;;;;;27.30;101197.00;;;;5111655;28;20213;-81
2023/07/19 10:29:43;;;;;;;2.55;1.42;;;;;27.40;101199.00;;;;5110304;28;20210;-82
2023/07/19 10:32:11;;;;;;;2.60;1.60;;;;;27.60;101192.00;;;;5110621;28;20201;-82
2023/07/19 10:34:39;;;;;;;3.30;1.50;;;;;27.70;101198.00;;;;5111429;28;20194;-81
2023/07/19 10:37:07;;;;;;;2.17;1.38;;;;;27.80;101199.00;;;;5111566;28;20193;-81
2023/07/19 10:39:34;;;;;;;2.63;1.33;;;;;27.90;101195.00;;;;5110753;28;20868;-82
2023/07/19 10:42:02;;;;;;;2.92;1.58;;;;;28.10;101196.00;;;;5111199;28;20212;-82
2023/07/19 10:44:30;;;;;;;3.47;1.63;;;;;28.10;101200.00;;;;5110680;28;20202;-81
2023/07/19 10:46:59;;;;;;;9.98;1.52;;;;;28.20;101195.00;;;;5110030;28;20205;-81
2023/07/19 10:49:27;;;;;;;2.70;1.35;;;;;28.20;101199.00;;;;5110146;28;20202;-81
2023/07/19 10:51:56;;;;;;;1.88;1.27;;;;;28.10;101197.00;;;;5109946;28;20197;-81
2023/07/19 10:54:25;;;;;;;1.65;1.27;;;;;28.10;101212.00;;;;5109778;28;20209;-81
2023/07/19 10:56:57;;;;;;;2.08;1.02;;;;;28.10;101213.00;;;;5110347;28;20270;-81
2023/07/19 10:59:24;;;;;;;1.63;1.05;;;;;28.10;101212.00;;;;5109563;28;20209;-80
2023/07/19 11:01:52;;;;;;;3.38;1.27;;;;;28.00;101210.00;;;;5109940;28;20213;-81
2023/07/19 11:04:20;;;;;;;2.88;1.35;;;;;28.00;101211.00;;;;5090179;28;20723;-81
2023/07/19 11:06:59;;;;;;;1.98;1.10;;;;;27.90;101203.00;;;;5089424;28;20640;-81
2023/07/19 11:09:27;;;;;;;1.80;1.02;;;;;28.00;101203.00;;;;5088984;28;20210;-82
2023/07/19 11:11:54;;;;;;;2.00;1.30;;;;;28.00;101207.00;;;;5090248;28;20201;-81
2023/07/19 11:14:30;;;;;;;2.97;1.38;;;;;27.90;101199.00;;;;5089978;28;20198;-81
2023/07/19 11:16:59;;;;;;;1.65;1.10;;;;;28.00;101203.00;;;;5089716;28;20221;-82
2023/07/19 11:19:35;;;;;;;1.75;1.15;;;;;27.90;101196.00;;;;5097164;28;20209;-81
2023/07/19 11:22:02;;;;;;;2.15;1.48;;;;;27.90;101202.00;;;;5089568;28;20194;-81
2023/07/19 11:24:51;;;;;;;4.93;1.30;;;;;27.80;101204.00;;;;5089507;28;20237;-82
2023/07/19 11:27:19;;;;;;;2.97;1.52;;;;;27.90;101195.00;;;;5085048;28;20242;-81
2023/07/19 11:29:52;;;;;;;2.13;1.20;;;;;27.80;101203.00;;;;5089369;28;20206;-80
2023/07/19 11:32:21;;;;;;;3.17;1.60;;;;;27.70;101200.00;;;;5089233;28;20206;-81
2023/07/19 11:34:50;;;;;;;4.28;1.70;;;;;27.70;101199.00;;;;5089904;28;20210;-81
2023/07/19 11:37:19;;;;;;;3.95;1.20;;;;;27.70;101205.00;;;;5089285;28;20229;-82
2023/07/19 11:39:48;;;;;;;1.92;1.02;;;;;27.70;101203.00;;;;5088521;28;20690;-82
2023/07/19 11:42:16;;;;;;;4.60;1.50;;;;;27.70;101210.00;;;;5088735;28;20233;-81
2023/07/19 11:44:44;;;;;;;3.58;1.70;;;;;27.70;101213.00;;;;5088309;28;20210;-82
2023/07/19 11:47:12;;;;;;;2.95;1.27;;;;;27.80;101208.00;;;;5089420;28;20612;-81
2023/07/19 11:49:41;;;;;;;2.13;1.10;;;;;27.80;101201.00;;;;5088923;28;20206;-81
2023/07/19 11:52:09;;;;;;;3.97;1.08;;;;;27.90;101203.00;;;;5101918;28;20289;-81
2023/07/19 11:54:37;;;;;;;1.70;1.27;;;;;27.90;101203.00;;;;5094831;28;20206;-82
2023/07/19 11:57:05;;;;;;;5.22;1.85;;;;;27.90;101201.00;;;;5088337;28;20190;-82
2023/07/19 11:59:32;;;;;;;2.22;1.67;;;;;27.90;101202.00;;;;5088044;28;20271;-82
2023/07/19 12:02:00;;;;;;;3.63;1.42;;;;;27.90;101207.00;;;;5106793;28;20589;-82
2023/07/19 12:04:29;;;;;;;3.35;1.17;;;;;28.00;101202.00;;;;5108410;28;20823;-82
2023/07/19 12:06:57;;;;;;;1.75;0.98;;;;;28.00;101198.00;;;;5109466;28;20190;-81
2023/07/19 12:09:25;;;;;;;2.30;1.13;;;;;28.10;101202.00;;;;5109143;28;20198;-82
2023/07/19 12:11:52;;;;;;;2.08;1.30;;;;;28.10;101199.00;;;;5092494;28;20213;-82
2023/07/19 12:14:19;;;;;;;2.10;1.20;;;;;28.10;101204.00;;;;5088616;28;20216;-82